Time;durP1;ratioP1;P1;durP2;ratioP2;P2;SDS_P1;SDS_P2;PMS_P1;PMS_P2;Temp;Humidity;BMP_temperature;BMP_pressure;BME280_temperature;BME280_humidity;BME280_pressure;Samples;Min_cycle;Max_cycle;Signal;HPM_P1;HPM_P2
2023/04/06 00:02:46;;;;;;;;;;;19.40;42.90;;;;;;10331622;28;1973;-71
2023/04/06 00:07:41;;;;;;;;;;;19.40;42.90;;;;;;10331445;28;902;-71
2023/04/06 00:12:37;;;;;;;;;;;19.40;42.80;;;;;;10331389;28;798;-72
2023/04/06 00:17:32;;;;;;;;;;;19.30;42.80;;;;;;10330575;28;1087;-72
2023/04/06 00:22:27;;;;;;;;;;;19.30;42.90;;;;;;10330260;28;1894;-72
2023/04/06 00:27:23;;;;;;;;;;;19.30;42.90;;;;;;10331808;28;969;-72
2023/04/06 00:32:18;;;;;;;;;;;19.30;42.80;;;;;;10331205;28;868;-72
2023/04/06 00:37:14;;;;;;;;;;;19.30;42.80;;;;;;10331027;28;881;-71
2023/04/06 00:42:09;;;;;;;;;;;19.20;42.80;;;;;;10330823;28;1898;-71
2023/04/06 00:47:05;;;;;;;;;;;19.30;42.80;;;;;;10330700;28;829;-71
2023/04/06 00:52:01;;;;;;;;;;;19.30;42.80;;;;;;10329944;28;956;-71
2023/04/06 00:56:56;;;;;;;;;;;19.30;42.80;;;;;;10329526;28;1107;-71
2023/04/06 01:01:52;;;;;;;;;;;19.30;42.90;;;;;;10329798;28;1981;-71
2023/04/06 01:06:47;;;;;;;;;;;19.30;42.80;;;;;;10329935;28;876;-71
2023/04/06 01:11:42;;;;;;;;;;;19.30;42.70;;;;;;10328683;28;893;-71
2023/04/06 01:16:38;;;;;;;;;;;19.30;42.70;;;;;;10329612;28;922;-71
2023/04/06 01:21:33;;;;;;;;;;;19.20;42.60;;;;;;10328768;28;1902;-71
2023/04/06 01:26:29;;;;;;;;;;;19.30;42.80;;;;;;10328622;28;855;-71
2023/04/06 01:31:24;;;;;;;;;;;19.20;42.70;;;;;;10329561;28;846;-71
2023/04/06 01:36:20;;;;;;;;;;;19.20;42.60;;;;;;10328096;28;1611;-72
2023/04/06 01:41:15;;;;;;;;;;;19.30;42.70;;;;;;10327875;28;1968;-71
2023/04/06 01:46:11;;;;;;;;;;;19.20;42.60;;;;;;10327653;28;895;-71
2023/04/06 01:51:06;;;;;;;;;;;19.20;42.70;;;;;;10328170;28;879;-71
2023/04/06 01:56:02;;;;;;;;;;;19.20;42.70;;;;;;10328080;28;1129;-71
2023/04/06 02:00:57;;;;;;;;;;;19.20;42.60;;;;;;10327698;28;1973;-71
2023/04/06 02:05:52;;;;;;;;;;;19.20;42.70;;;;;;10326354;28;858;-71
2023/04/06 02:10:48;;;;;;;;;;;19.10;42.70;;;;;;10327171;28;785;-71
2023/04/06 02:15:43;;;;;;;;;;;19.10;42.60;;;;;;10325952;28;988;-71
2023/04/06 02:20:38;;;;;;;;;;;19.10;42.60;;;;;;10326367;28;1957;-72
2023/04/06 02:25:34;;;;;;;;;;;19.20;42.70;;;;;;10325687;28;905;-71
2023/04/06 02:30:32;;;;;;;;;;;19.10;42.60;;;;;;10326219;28;755;-71
2023/04/06 02:35:27;;;;;;;;;;;19.10;42.50;;;;;;10326595;28;895;-72
2023/04/06 02:40:23;;;;;;;;;;;19.10;42.60;;;;;;10325979;28;1898;-72
2023/04/06 02:45:18;;;;;;;;;;;19.10;42.70;;;;;;10325791;28;715;-72
2023/04/06 02:50:13;;;;;;;;;;;19.10;42.70;;;;;;10325681;28;774;-72
2023/04/06 02:55:09;;;;;;;;;;;19.10;42.60;;;;;;10325811;28;1148;-71
2023/04/06 03:00:04;;;;;;;;;;;19.10;42.60;;;;;;10325507;28;1980;-71
2023/04/06 03:05:00;;;;;;;;;;;19.00;42.60;;;;;;10325407;28;952;-72
2023/04/06 03:09:55;;;;;;;;;;;19.10;42.70;;;;;;10325322;28;927;-71
2023/04/06 03:14:50;;;;;;;;;;;19.10;42.60;;;;;;10325182;28;761;-71
2023/04/06 03:19:46;;;;;;;;;;;19.00;42.50;;;;;;10324990;28;1969;-71
2023/04/06 03:24:41;;;;;;;;;;;19.10;42.70;;;;;;10328986;28;970;-71
2023/04/06 03:29:37;;;;;;;;;;;19.00;42.60;;;;;;10333674;28;802;-71
2023/04/06 03:34:32;;;;;;;;;;;19.00;42.60;;;;;;10332866;28;825;-71
2023/04/06 03:39:27;;;;;;;;;;;19.00;42.60;;;;;;10332953;28;786;-71
2023/04/06 03:44:23;;;;;;;;;;;19.00;42.60;;;;;;10331905;28;1902;-71
2023/04/06 03:49:18;;;;;;;;;;;19.00;42.60;;;;;;10332221;28;862;-71
2023/04/06 03:54:14;;;;;;;;;;;19.00;42.60;;;;;;10332519;28;1267;-71
2023/04/06 03:59:09;;;;;;;;;;;19.00;42.60;;;;;;10332073;28;762;-71
2023/04/06 04:04:04;;;;;;;;;;;18.90;42.60;;;;;;10331609;28;1918;-71
2023/04/06 04:09:00;;;;;;;;;;;18.90;42.70;;;;;;10331572;28;915;-71
2023/04/06 04:13:55;;;;;;;;;;;19.00;42.80;;;;;;10331436;28;976;-71
2023/04/06 04:18:51;;;;;;;;;;;19.00;42.60;;;;;;10331186;28;805;-72
2023/04/06 04:23:46;;;;;;;;;;;19.00;42.60;;;;;;10330949;28;1941;-72
2023/04/06 04:28:41;;;;;;;;;;;19.00;42.70;;;;;;10330875;28;794;-72
2023/04/06 04:33:39;;;;;;;;;;;19.00;42.60;;;;;;10331282;28;883;-71
2023/04/06 04:38:34;;;;;;;;;;;19.00;42.60;;;;;;10329959;28;855;-71
2023/04/06 04:43:30;;;;;;;;;;;19.00;42.60;;;;;;10331003;28;1977;-71
2023/04/06 04:48:25;;;;;;;;;;;19.00;42.80;;;;;;10330043;28;1012;-71
2023/04/06 04:53:21;;;;;;;;;;;19.00;42.60;;;;;;10330476;28;988;-71
2023/04/06 04:58:18;;;;;;;;;;;19.00;42.60;;;;;;10329133;28;1360;-71
2023/04/06 05:03:14;;;;;;;;;;;19.00;42.50;;;;;;10329304;28;2014;-71
2023/04/06 05:08:09;;;;;;;;;;;19.00;42.60;;;;;;10329984;28;940;-71
2023/04/06 05:13:04;;;;;;;;;;;19.00;42.60;;;;;;10329060;28;956;-71
2023/04/06 05:18:00;;;;;;;;;;;19.00;42.70;;;;;;10329512;28;852;-71
2023/04/06 05:22:58;;;;;;;;;;;19.00;42.60;;;;;;10328073;28;1907;-71
2023/04/06 05:27:53;;;;;;;;;;;19.00;42.70;;;;;;10328551;28;766;-71
2023/04/06 05:32:49;;;;;;;;;;;19.00;42.70;;;;;;10328619;28;870;-71
2023/04/06 05:37:44;;;;;;;;;;;19.00;42.60;;;;;;10328697;28;883;-71
2023/04/06 05:42:40;;;;;;;;;;;18.90;42.60;;;;;;10328190;28;1902;-72
2023/04/06 05:47:36;;;;;;;;;;;18.90;42.60;;;;;;10326729;28;1001;-71
2023/04/06 05:52:31;;;;;;;;;;;18.90;42.60;;;;;;10328113;28;841;-72
2023/04/06 05:57:27;;;;;;;;;;;18.90;42.60;;;;;;10328647;28;1417;-72
2023/04/06 06:02:22;;;;;;;;;;;19.00;42.60;;;;;;10326506;28;1910;-70
2023/04/06 06:07:17;;;;;;;;;;;18.90;42.60;;;;;;10326903;28;974;-71
2023/04/06 06:12:13;;;;;;;;;;;18.90;42.70;;;;;;10326778;28;851;-70
2023/04/06 06:17:08;;;;;;;;;;;18.90;42.60;;;;;;10327296;28;867;-71
2023/04/06 06:22:04;;;;;;;;;;;18.80;42.70;;;;;;10326959;28;1901;-71
2023/04/06 06:27:00;;;;;;;;;;;18.80;42.80;;;;;;10326926;28;964;-71
2023/04/06 06:31:55;;;;;;;;;;;18.70;42.90;;;;;;10326140;28;776;-71
2023/04/06 06:36:51;;;;;;;;;;;18.80;42.90;;;;;;10326056;28;779;-70
2023/04/06 06:41:47;;;;;;;;;;;18.80;42.90;;;;;;10325768;28;1901;-71
2023/04/06 06:46:42;;;;;;;;;;;18.80;42.90;;;;;;10325777;28;858;-71
2023/04/06 06:51:37;;;;;;;;;;;18.80;42.80;;;;;;10326283;28;856;-71
2023/04/06 06:56:33;;;;;;;;;;;18.90;42.90;;;;;;10326646;28;1559;-71
2023/04/06 07:01:28;;;;;;;;;;;18.80;42.90;;;;;;10324505;28;1968;-71
2023/04/06 07:06:23;;;;;;;;;;;18.80;43.00;;;;;;10325395;28;842;-70
2023/04/06 07:11:19;;;;;;;;;;;18.80;43.00;;;;;;10325324;28;866;-70
2023/04/06 07:16:14;;;;;;;;;;;18.90;43.00;;;;;;10325183;28;798;-71
2023/04/06 07:21:10;;;;;;;;;;;18.90;43.00;;;;;;10325024;28;1965;-70
2023/04/06 07:26:05;;;;;;;;;;;18.80;43.00;;;;;;10324927;28;985;-71
2023/04/06 07:31:00;;;;;;;;;;;18.90;43.00;;;;;;10324934;28;758;-70
2023/04/06 07:35:56;;;;;;;;;;;18.90;42.90;;;;;;10324814;28;854;-70
2023/04/06 07:40:52;;;;;;;;;;;18.90;43.00;;;;;;10324641;28;1910;-70
2023/04/06 07:45:47;;;;;;;;;;;18.90;42.90;;;;;;10324539;28;879;-70
2023/04/06 07:50:42;;;;;;;;;;;18.90;43.00;;;;;;10324527;28;881;-70
2023/04/06 07:55:38;;;;;;;;;;;18.90;42.90;;;;;;10323567;28;1245;-71
2023/04/06 08:00:33;;;;;;;;;;;18.90;43.10;;;;;;10324191;28;1905;-71
2023/04/06 08:05:28;;;;;;;;;;;18.90;43.30;;;;;;10324989;28;853;-70
2023/04/06 08:10:24;;;;;;;;;;;18.80;43.40;;;;;;10325199;28;857;-71
2023/04/06 08:15:19;;;;;;;;;;;18.80;43.40;;;;;;10331390;28;877;-70
2023/04/06 08:20:15;;;;;;;;;;;18.80;43.30;;;;;;10331701;28;1965;-71
2023/04/06 08:25:10;;;;;;;;;;;18.80;43.30;;;;;;10332105;28;844;-71
2023/04/06 08:30:06;;;;;;;;;;;18.80;43.20;;;;;;10330858;28;782;-71
2023/04/06 08:35:01;;;;;;;;;;;18.80;43.00;;;;;;10330639;28;838;-71
2023/04/06 08:39:56;;;;;;;;;;;18.80;42.90;;;;;;10330430;28;1902;-71
2023/04/06 08:44:52;;;;;;;;;;;18.80;43.00;;;;;;10330903;28;857;-70
2023/04/06 08:49:47;;;;;;;;;;;18.80;42.90;;;;;;10329501;28;829;-71
2023/04/06 08:54:43;;;;;;;;;;;18.80;42.30;;;;;;10329863;28;1113;-75
2023/04/06 08:59:38;;;;;;;;;;;18.80;42.60;;;;;;10329739;28;940;-72
2023/04/06 09:04:33;;;;;;;;;;;18.80;42.80;;;;;;10329609;28;1909;-77
2023/04/06 09:09:29;;;;;;;;;;;18.80;42.90;;;;;;10329464;28;948;-76
2023/04/06 09:14:24;;;;;;;;;;;18.70;42.90;;;;;;10330226;28;843;-76
2023/04/06 09:19:20;;;;;;;;;;;18.70;42.90;;;;;;10328850;28;859;-76
2023/04/06 09:24:18;;;;;;;;;;;18.80;42.90;;;;;;10328433;28;1894;-77
2023/04/06 09:29:13;;;;;;;;;;;18.80;42.90;;;;;;10329116;28;861;-77
2023/04/06 09:34:08;;;;;;;;;;;18.70;42.90;;;;;;10328762;28;889;-78
2023/04/06 09:39:04;;;;;;;;;;;18.70;43.00;;;;;;10327934;28;940;-77
2023/04/06 09:43:59;;;;;;;;;;;18.70;42.90;;;;;;10327633;28;1894;-76
2023/04/06 09:48:55;;;;;;;;;;;18.70;42.90;;;;;;10328136;28;948;-76
2023/04/06 09:53:50;;;;;;;;;;;18.80;42.90;;;;;;10327914;28;844;-77
2023/04/06 09:58:45;;;;;;;;;;;18.80;42.80;;;;;;10327047;28;1310;-77
2023/04/06 10:03:41;;;;;;;;;;;18.80;42.80;;;;;;10326922;28;1906;-75
2023/04/06 10:08:37;;;;;;;;;;;18.80;42.80;;;;;;10326723;28;863;-77
2023/04/06 10:13:32;;;;;;;;;;;18.80;42.80;;;;;;10326513;28;825;-76
2023/04/06 10:18:28;;;;;;;;;;;18.80;42.70;;;;;;10326701;28;791;-76
2023/04/06 10:23:23;;;;;;;;;;;18.80;42.80;;;;;;10325545;28;1898;-76
2023/04/06 10:28:18;;;;;;;;;;;18.80;42.70;;;;;;10326148;28;852;-76
2023/04/06 10:33:14;;;;;;;;;;;18.80;42.40;;;;;;10325414;28;797;-75
2023/04/06 10:38:11;;;;;;;;;;;18.80;42.50;;;;;;10325733;28;1561;-76
2023/04/06 10:43:06;;;;;;;;;;;18.80;42.60;;;;;;10325551;28;1898;-77
2023/04/06 10:48:02;;;;;;;;;;;18.80;42.50;;;;;;10325573;28;872;-77
2023/04/06 10:52:57;;;;;;;;;;;18.80;42.50;;;;;;10325393;28;856;-77
2023/04/06 10:57:52;;;;;;;;;;;18.80;42.60;;;;;;10325976;28;1116;-79
2023/04/06 11:02:48;;;;;;;;;;;18.80;42.50;;;;;;10326208;28;1906;-77
2023/04/06 11:07:43;;;;;;;;;;;18.80;42.50;;;;;;10324642;28;842;-77
2023/04/06 11:12:39;;;;;;;;;;;18.80;42.40;;;;;;10325719;28;856;-78
2023/04/06 11:17:34;;;;;;;;;;;18.80;42.40;;;;;;10324933;28;906;-77
2023/04/06 11:22:29;;;;;;;;;;;18.70;42.50;;;;;;10324253;28;1879;-80
2023/04/06 11:27:25;;;;;;;;;;;18.70;42.40;;;;;;10324824;28;947;-72
2023/04/06 11:32:21;;;;;;;;;;;18.80;42.40;;;;;;10322447;28;1189;-73
2023/04/06 11:37:16;;;;;;;;;;;18.80;42.40;;;;;;10324286;28;727;-72
2023/04/06 11:42:11;;;;;;;;;;;18.80;42.40;;;;;;10324248;28;1961;-72
2023/04/06 11:47:07;;;;;;;;;;;18.80;42.10;;;;;;10328263;28;877;-72
2023/04/06 11:52:02;;;;;;;;;;;18.80;42.90;;;;;;10332021;28;825;-73
2023/04/06 11:56:57;;;;;;;;;;;18.80;42.40;;;;;;10332993;28;1322;-69
2023/04/06 12:01:53;;;;;;;;;;;18.80;42.30;;;;;;10331311;28;1910;-67
2023/04/06 12:06:48;;;;;;;;;;;18.80;42.50;;;;;;10331775;28;874;-67
2023/04/06 12:11:44;;;;;;;;;;;18.70;42.20;;;;;;10331679;28;1242;-69
2023/04/06 12:16:39;;;;;;;;;;;18.70;41.90;;;;;;10331415;28;786;-68
2023/04/06 12:21:36;;;;;;;;;;;18.80;42.00;;;;;;10331165;28;1897;-69
2023/04/06 12:26:32;;;;;;;;;;;18.80;42.00;;;;;;10333227;28;1121;-69
2023/04/06 12:31:27;;;;;;;;;;;18.80;42.20;;;;;;10329636;28;1120;-69
2023/04/06 12:36:22;;;;;;;;;;;18.90;42.00;;;;;;10331758;28;1663;-69
2023/04/06 12:41:18;;;;;;;;;;;18.80;42.30;;;;;;10330255;28;1898;-68
2023/04/06 12:46:13;;;;;;;;;;;18.80;42.50;;;;;;10330042;28;863;-69
2023/04/06 12:51:09;;;;;;;;;;;18.80;42.20;;;;;;10329952;28;948;-70
2023/04/06 12:56:04;;;;;;;;;;;18.90;42.20;;;;;;10329382;28;1410;-69
2023/04/06 13:01:02;;;;;;;;;;;18.90;42.20;;;;;;10329462;28;1980;-69
2023/04/06 13:05:58;;;;;;;;;;;18.90;42.30;;;;;;10329268;28;1005;-69
2023/04/06 13:10:53;;;;;;;;;;;18.90;42.10;;;;;;10328752;28;1091;-69
2023/04/06 13:15:48;;;;;;;;;;;18.90;42.30;;;;;;10328376;28;912;-70
2023/04/06 13:20:44;;;;;;;;;;;18.90;42.00;;;;;;10328705;28;1911;-70
2023/04/06 13:25:39;;;;;;;;;;;18.90;42.10;;;;;;10329156;28;846;-69
2023/04/06 13:30:35;;;;;;;;;;;18.90;42.20;;;;;;10328316;28;958;-69
2023/04/06 13:35:30;;;;;;;;;;;18.90;42.00;;;;;;10328123;28;804;-70
2023/04/06 13:40:26;;;;;;;;;;;18.90;42.20;;;;;;10327252;28;1902;-69
2023/04/06 13:45:21;;;;;;;;;;;19.00;42.80;;;;;;10328697;28;883;-69
2023/04/06 13:50:16;;;;;;;;;;;18.90;42.20;;;;;;10328046;28;765;-70
2023/04/06 13:55:12;;;;;;;;;;;19.00;42.50;;;;;;10327801;28;1100;-70
2023/04/06 14:00:08;;;;;;;;;;;19.00;42.40;;;;;;10327089;28;1986;-70
2023/04/06 14:05:04;;;;;;;;;;;19.00;42.50;;;;;;10327103;28;918;-70
2023/04/06 14:09:59;;;;;;;;;;;19.00;42.40;;;;;;10326292;28;836;-68
2023/04/06 14:14:55;;;;;;;;;;;19.00;42.20;;;;;;10326739;28;854;-69
2023/04/06 14:19:51;;;;;;;;;;;19.00;42.40;;;;;;10326592;28;862;-70
2023/04/06 14:24:47;;;;;;;;;;;19.00;42.20;;;;;;10326281;28;1894;-70
2023/04/06 14:29:43;;;;;;;;;;;19.00;42.30;;;;;;10325878;28;1067;-70
2023/04/06 14:34:38;;;;;;;;;;;19.00;42.20;;;;;;10326160;28;902;-70
2023/04/06 14:39:33;;;;;;;;;;;19.00;42.10;;;;;;10326893;28;778;-70
2023/04/06 14:44:29;;;;;;;;;;;19.00;41.80;;;;;;10326441;28;1969;-70
2023/04/06 14:49:24;;;;;;;;;;;18.90;41.50;;;;;;10326420;28;790;-70
2023/04/06 14:54:20;;;;;;;;;;;18.90;41.80;;;;;;10325854;28;1431;-70
2023/04/06 14:59:15;;;;;;;;;;;18.90;42.20;;;;;;10326310;28;829;-70
2023/04/06 15:04:10;;;;;;;;;;;18.90;42.10;;;;;;10324865;28;1980;-69
2023/04/06 15:09:06;;;;;;;;;;;18.90;42.20;;;;;;10325410;28;822;-69
2023/04/06 15:14:01;;;;;;;;;;;18.90;42.20;;;;;;10325949;28;934;-68
2023/04/06 15:18:57;;;;;;;;;;;18.90;42.10;;;;;;10326268;28;1035;-68
2023/04/06 15:23:52;;;;;;;;;;;18.90;42.10;;;;;;10333535;28;1905;-68
2023/04/06 15:28:48;;;;;;;;;;;18.80;41.80;;;;;;10333968;28;863;-70
2023/04/06 15:33:43;;;;;;;;;;;18.80;41.70;;;;;;10333746;28;892;-70
2023/04/06 15:38:38;;;;;;;;;;;18.90;41.60;;;;;;10333030;28;814;-70
2023/04/06 15:43:34;;;;;;;;;;;18.90;41.70;;;;;;10333289;28;1902;-71
2023/04/06 15:48:30;;;;;;;;;;;18.90;41.90;;;;;;10333088;28;875;-69
2023/04/06 15:53:26;;;;;;;;;;;18.90;41.80;;;;;;10332884;28;930;-69
2023/04/06 15:58:22;;;;;;;;;;;18.90;41.90;;;;;;10333085;28;1299;-69
2023/04/06 16:03:17;;;;;;;;;;;18.80;41.80;;;;;;10332471;28;1963;-68
2023/04/06 16:08:15;;;;;;;;;;;18.90;41.80;;;;;;10331752;28;1075;-69
2023/04/06 16:13:11;;;;;;;;;;;18.90;41.40;;;;;;10331568;28;774;-70
2023/04/06 16:18:06;;;;;;;;;;;18.90;41.60;;;;;;10332048;28;845;-69
2023/04/06 16:23:02;;;;;;;;;;;18.90;41.70;;;;;;10331100;28;1906;-70
2023/04/06 16:27:57;;;;;;;;;;;18.90;41.50;;;;;;10331632;28;770;-69
2023/04/06 16:32:52;;;;;;;;;;;18.90;41.20;;;;;;10329847;28;854;-69
2023/04/06 16:37:48;;;;;;;;;;;19.00;41.10;;;;;;10332059;28;944;-69
2023/04/06 16:42:45;;;;;;;;;;;18.90;41.30;;;;;;10330520;28;1922;-69
2023/04/06 16:47:40;;;;;;;;;;;19.00;41.20;;;;;;10330225;28;949;-69
2023/04/06 16:52:36;;;;;;;;;;;19.00;41.50;;;;;;10330825;28;723;-69
2023/04/06 16:57:32;;;;;;;;;;;18.90;42.40;;;;;;10330085;28;1256;-69
2023/04/06 17:02:28;;;;;;;;;;;18.90;41.70;;;;;;10330392;28;1985;-69
2023/04/06 17:07:30;;;;;;;;;;;18.90;41.80;;;;;;10330301;28;833;-69
2023/04/06 17:12:25;;;;;;;;;;;18.90;42.00;;;;;;10329390;28;863;-69
2023/04/06 17:17:20;;;;;;;;;;;18.90;42.10;;;;;;10329307;28;886;-69
2023/04/06 17:22:19;;;;;;;;;;;18.90;42.80;;;;;;10329018;28;1906;-69
2023/04/06 17:27:15;;;;;;;;;;;18.90;42.20;;;;;;10328931;28;840;-69
2023/04/06 17:32:11;;;;;;;;;;;18.90;42.20;;;;;;10329200;28;849;-69
2023/04/06 17:37:06;;;;;;;;;;;18.90;42.40;;;;;;10329544;28;939;-69
2023/04/06 17:42:03;;;;;;;;;;;19.00;42.40;;;;;;10328639;28;1902;-69
2023/04/06 17:46:58;;;;;;;;;;;19.00;42.20;;;;;;10327942;28;895;-69
2023/04/06 17:51:54;;;;;;;;;;;19.00;42.20;;;;;;10328455;28;803;-69
2023/04/06 17:56:50;;;;;;;;;;;19.00;42.40;;;;;;10327004;28;1235;-69
2023/04/06 18:01:46;;;;;;;;;;;19.00;42.40;;;;;;10327679;28;1910;-69
2023/04/06 18:06:41;;;;;;;;;;;18.90;42.50;;;;;;10327757;28;907;-69
2023/04/06 18:11:36;;;;;;;;;;;19.00;42.60;;;;;;10327663;28;925;-69
2023/04/06 18:16:32;;;;;;;;;;;19.00;42.50;;;;;;10326826;28;884;-69
2023/04/06 18:21:28;;;;;;;;;;;19.00;42.60;;;;;;10325751;28;1898;-69
2023/04/06 18:26:26;;;;;;;;;;;19.00;42.70;;;;;;10326340;28;968;-69
2023/04/06 18:31:22;;;;;;;;;;;19.00;42.60;;;;;;10326300;28;837;-69
2023/04/06 18:36:17;;;;;;;;;;;19.10;42.70;;;;;;10326571;28;847;-69
2023/04/06 18:41:12;;;;;;;;;;;19.00;42.60;;;;;;10325323;28;1897;-70
2023/04/06 18:46:08;;;;;;;;;;;19.10;42.70;;;;;;10325158;28;829;-70
2023/04/06 18:51:03;;;;;;;;;;;19.10;42.70;;;;;;10326225;28;935;-70
2023/04/06 18:55:59;;;;;;;;;;;19.00;42.80;;;;;;10325129;28;1468;-70
2023/04/06 19:00:56;;;;;;;;;;;19.00;42.90;;;;;;10325330;28;1902;-70
2023/04/06 19:05:51;;;;;;;;;;;19.10;42.80;;;;;;10325853;28;927;-70
2023/04/06 19:10:48;;;;;;;;;;;19.10;42.90;;;;;;10324540;28;1105;-70
2023/04/06 19:15:43;;;;;;;;;;;19.10;42.90;;;;;;10325704;28;786;-70
2023/04/06 19:20:38;;;;;;;;;;;19.10;42.80;;;;;;10324918;28;1894;-70
2023/04/06 19:25:34;;;;;;;;;;;19.10;42.80;;;;;;10324372;28;889;-70
2023/04/06 19:30:29;;;;;;;;;;;19.00;42.90;;;;;;10324802;28;759;-70
2023/04/06 19:35:25;;;;;;;;;;;19.00;43.00;;;;;;10324571;28;878;-70
2023/04/06 19:40:20;;;;;;;;;;;19.00;42.90;;;;;;10325053;28;1894;-70
2023/04/06 19:45:15;;;;;;;;;;;19.00;42.90;;;;;;10324372;28;898;-69
2023/04/06 19:50:11;;;;;;;;;;;19.00;43.00;;;;;;10324539;28;769;-83
2023/04/06 19:55:06;;;;;;;;;;;19.00;43.00;;;;;;10324174;28;1103;-82
2023/04/06 20:00:01;;;;;;;;;;;18.90;43.10;;;;;;10324149;28;929;-83
2023/04/06 20:04:57;;;;;;;;;;;18.90;43.00;;;;;;10324701;28;1914;-82
2023/04/06 20:09:52;;;;;;;;;;;18.90;43.10;;;;;;10330118;28;809;-82
2023/04/06 20:14:49;;;;;;;;;;;18.90;43.10;;;;;;10332064;28;869;-82
2023/04/06 20:19:45;;;;;;;;;;;19.00;43.00;;;;;;10331476;28;862;-82
2023/04/06 20:24:40;;;;;;;;;;;18.90;43.00;;;;;;10331117;28;1973;-83
2023/04/06 20:29:36;;;;;;;;;;;18.90;43.10;;;;;;10330932;28;820;-82
2023/04/06 20:34:32;;;;;;;;;;;18.90;43.10;;;;;;10330676;28;842;-82
2023/04/06 20:39:28;;;;;;;;;;;18.90;43.10;;;;;;10329977;28;1212;-83
2023/04/06 20:44:25;;;;;;;;;;;18.90;43.10;;;;;;10330393;28;1964;-83
2023/04/06 20:49:23;;;;;;;;;;;18.90;43.10;;;;;;10331539;28;825;-83
2023/04/06 20:54:18;;;;;;;;;;;18.90;43.10;;;;;;10330381;28;1133;-82
2023/04/06 20:59:14;;;;;;;;;;;18.90;43.10;;;;;;10330565;28;774;-82
2023/04/06 21:04:09;;;;;;;;;;;18.90;43.10;;;;;;10329556;28;1922;-82
2023/04/06 21:09:05;;;;;;;;;;;18.90;43.00;;;;;;10330188;28;869;-82
2023/04/06 21:14:00;;;;;;;;;;;18.90;43.10;;;;;;10330215;28;806;-83
2023/04/06 21:18:55;;;;;;;;;;;18.90;43.20;;;;;;10328761;28;841;-83
2023/04/06 21:23:51;;;;;;;;;;;18.80;43.10;;;;;;10329039;28;1913;-83
2023/04/06 21:28:47;;;;;;;;;;;18.80;43.20;;;;;;10328647;28;847;-82
2023/04/06 21:33:42;;;;;;;;;;;18.90;43.20;;;;;;10328402;28;841;-83
2023/04/06 21:38:37;;;;;;;;;;;18.80;43.20;;;;;;10328368;28;940;-74
2023/04/06 21:43:33;;;;;;;;;;;18.90;43.20;;;;;;10328675;28;1969;-82
2023/04/06 21:48:28;;;;;;;;;;;18.80;43.20;;;;;;10328591;28;787;-82
2023/04/06 21:53:24;;;;;;;;;;;18.90;43.30;;;;;;10327202;28;862;-82
2023/04/06 21:58:20;;;;;;;;;;;18.80;43.20;;;;;;10327627;28;1624;-82
2023/04/06 22:03:15;;;;;;;;;;;18.80;43.20;;;;;;10309339;28;1914;-82
2023/04/06 22:08:11;;;;;;;;;;;18.90;43.20;;;;;;10327178;28;943;-82
2023/04/06 22:13:06;;;;;;;;;;;18.90;43.20;;;;;;10327613;28;790;-82
2023/04/06 22:18:01;;;;;;;;;;;18.80;43.20;;;;;;10326886;28;867;-82
2023/04/06 22:22:57;;;;;;;;;;;18.80;43.30;;;;;;10326643;28;1910;-82
2023/04/06 22:27:52;;;;;;;;;;;18.80;43.20;;;;;;10326505;28;777;-82
2023/04/06 22:32:48;;;;;;;;;;;18.80;43.30;;;;;;10326268;28;833;-82
2023/04/06 22:37:43;;;;;;;;;;;18.80;43.30;;;;;;10325597;28;834;-82
2023/04/06 22:42:38;;;;;;;;;;;18.80;43.30;;;;;;10326081;28;1910;-82
2023/04/06 22:47:34;;;;;;;;;;;18.80;43.20;;;;;;10326726;28;837;-82
2023/04/06 22:52:29;;;;;;;;;;;18.80;43.30;;;;;;10326444;28;869;-82
2023/04/06 22:57:24;;;;;;;;;;;18.80;43.30;;;;;;10326577;28;1285;-82
2023/04/06 23:02:20;;;;;;;;;;;18.80;43.30;;;;;;10326025;28;1914;-82
2023/04/06 23:07:15;;;;;;;;;;;18.80;43.40;;;;;;10325802;28;935;-82
2023/04/06 23:12:11;;;;;;;;;;;18.80;43.40;;;;;;10325393;28;742;-82
2023/04/06 23:17:08;;;;;;;;;;;18.80;43.30;;;;;;10324710;28;845;-82
2023/04/06 23:22:03;;;;;;;;;;;18.80;43.30;;;;;;10325092;28;1910;-82
2023/04/06 23:26:58;;;;;;;;;;;18.80;43.40;;;;;;10325317;28;971;-82
2023/04/06 23:31:54;;;;;;;;;;;18.80;43.30;;;;;;10325632;28;849;-82
2023/04/06 23:36:49;;;;;;;;;;;18.80;43.30;;;;;;10324912;28;894;-82
2023/04/06 23:41:45;;;;;;;;;;;18.80;43.40;;;;;;10328837;28;1906;-82
2023/04/06 23:46:40;;;;;;;;;;;18.80;43.40;;;;;;10333409;28;806;-82
2023/04/06 23:51:35;;;;;;;;;;;18.80;43.40;;;;;;10333176;28;927;-82
2023/04/06 23:56:31;;;;;;;;;;;18.80;43.50;;;;;;10331998;28;1246;-82
